createdAt,value
2022-11-02T00:01:20.306Z,10.86
2022-11-02T00:03:48.272Z,10.83
2022-11-02T00:06:15.493Z,10.79
2022-11-02T00:08:42.562Z,10.77
2022-11-02T00:11:09.566Z,10.77
2022-11-02T00:13:36.706Z,10.75
2022-11-02T00:16:08.090Z,10.72
2022-11-02T00:18:36.917Z,10.67
2022-11-02T00:21:04.829Z,10.71
2022-11-02T00:23:32.808Z,10.71
2022-11-02T00:26:02.557Z,10.66
2022-11-02T00:28:30.789Z,10.74
2022-11-02T00:30:58.505Z,10.75
2022-11-02T00:33:26.502Z,10.78
2022-11-02T00:35:55.087Z,10.80
2022-11-02T00:38:22.178Z,10.75
2022-11-02T00:40:49.166Z,10.82
2022-11-02T00:43:16.138Z,10.90
2022-11-02T00:45:43.123Z,10.92
2022-11-02T00:48:10.574Z,10.82
2022-11-02T00:50:38.076Z,10.92
2022-11-02T00:53:05.180Z,10.93
2022-11-02T00:55:32.807Z,11.01
2022-11-02T00:57:59.864Z,11.00
2022-11-02T01:00:26.975Z,11.00
2022-11-02T01:02:53.970Z,10.96
2022-11-02T01:05:20.966Z,10.95
2022-11-02T01:07:48.020Z,10.97
2022-11-02T01:10:14.994Z,11.03
2022-11-02T01:12:42.079Z,11.05
2022-11-02T01:15:10.425Z,11.03
2022-11-02T01:17:37.964Z,10.78
2022-11-02T01:20:05.996Z,10.64
2022-11-02T01:22:33.160Z,10.51
2022-11-02T01:25:00.146Z,10.36
2022-11-02T01:27:27.143Z,10.19
2022-11-02T01:29:54.228Z,10.04
2022-11-02T01:32:21.217Z,10.01
2022-11-02T01:34:48.213Z,9.88
2022-11-02T01:37:15.337Z,9.81
2022-11-02T01:39:42.429Z,9.69
2022-11-02T01:42:24.099Z,9.71
2022-11-02T01:44:52.447Z,9.63
2022-11-02T01:47:31.412Z,9.61
2022-11-02T01:50:07.269Z,9.57
2022-11-02T01:52:36.309Z,9.49
2022-11-02T01:55:12.141Z,9.42
2022-11-02T01:57:41.619Z,9.38
2022-11-02T02:00:15.136Z,9.31
2022-11-02T02:03:02.706Z,9.25
2022-11-02T02:05:33.541Z,9.21
2022-11-02T02:08:03.045Z,9.11
2022-11-02T02:10:30.457Z,9.06
2022-11-02T02:12:57.599Z,9.00
2022-11-02T02:15:34.426Z,8.98
2022-11-02T02:18:13.568Z,8.99
2022-11-02T02:21:05.185Z,8.91
2022-11-02T02:24:13.563Z,8.94
2022-11-02T02:26:59.092Z,8.91
2022-11-02T02:29:45.845Z,8.85
2022-11-02T02:32:19.513Z,8.83
2022-11-02T02:35:11.071Z,8.84
2022-11-02T02:37:46.415Z,8.84
2022-11-02T02:40:37.740Z,8.85
2022-11-02T02:43:12.364Z,8.78
2022-11-02T02:45:44.727Z,8.86
2022-11-02T02:48:19.233Z,8.92
2022-11-02T02:50:53.893Z,8.97
2022-11-02T02:53:28.339Z,9.01
2022-11-02T02:55:58.239Z,9.01
2022-11-02T02:58:31.198Z,9.12
2022-11-02T03:01:00.678Z,9.14
2022-11-02T03:03:29.892Z,9.19
2022-11-02T03:06:15.408Z,9.24
2022-11-02T03:08:48.781Z,9.29
2022-11-02T03:11:18.502Z,9.33
2022-11-02T03:14:13.750Z,9.37
2022-11-02T03:17:11.588Z,9.39
2022-11-02T03:20:09.261Z,9.43
2022-11-02T03:23:01.061Z,9.57
2022-11-02T03:25:36.774Z,9.62
2022-11-02T03:28:16.331Z,9.65
2022-11-02T03:30:50.898Z,9.66
2022-11-02T03:33:31.633Z,9.68
2022-11-02T03:36:21.298Z,9.68
2022-11-02T03:39:01.054Z,9.70
2022-11-02T03:41:29.116Z,9.70
2022-11-02T03:44:03.685Z,9.73
2022-11-02T03:46:34.372Z,9.76
2022-11-02T03:49:07.602Z,9.79
2022-11-02T03:51:39.648Z,9.80
2022-11-02T03:54:17.999Z,9.84
2022-11-02T03:56:49.745Z,9.84
2022-11-02T03:59:17.244Z,9.88
2022-11-02T04:01:46.953Z,9.90
2022-11-02T04:04:14.529Z,9.88
2022-11-02T04:06:42.720Z,9.96
2022-11-02T04:09:09.955Z,10.05
2022-11-02T04:11:55.802Z,10.08
2022-11-02T04:14:38.028Z,10.16
2022-11-02T04:17:25.117Z,10.19
2022-11-02T04:19:52.713Z,10.22
2022-11-02T04:22:38.932Z,10.24
2022-11-02T04:25:18.430Z,10.24
2022-11-02T04:27:55.802Z,10.23
2022-11-02T04:30:23.492Z,10.21
2022-11-02T04:33:09.774Z,10.20
2022-11-02T04:35:37.789Z,10.19
2022-11-02T04:38:23.713Z,10.20
2022-11-02T04:41:13.332Z,10.24
2022-11-02T04:43:40.332Z,10.28
2022-11-02T04:46:07.712Z,10.35
2022-11-02T04:48:34.934Z,10.33
2022-11-02T04:51:02.430Z,10.45
2022-11-02T04:53:29.467Z,10.50
2022-11-02T04:55:56.512Z,10.43
2022-11-02T04:58:23.523Z,10.48
2022-11-02T05:00:50.520Z,10.47
2022-11-02T05:03:17.531Z,10.44
2022-11-02T05:05:47.062Z,10.42
2022-11-02T05:08:14.150Z,10.37
2022-11-02T05:10:41.166Z,10.35
2022-11-02T05:13:10.498Z,10.35
2022-11-02T05:15:40.505Z,10.33
2022-11-02T05:18:08.295Z,10.26
2022-11-02T05:20:35.629Z,10.30
2022-11-02T05:23:02.996Z,10.26
2022-11-02T05:25:30.457Z,10.22
2022-11-02T05:27:57.935Z,10.15
2022-11-02T05:30:25.601Z,10.18
2022-11-02T05:32:57.501Z,10.13
2022-11-02T05:35:24.573Z,10.13
2022-11-02T05:37:54.551Z,10.10
2022-11-02T05:40:21.604Z,10.07
2022-11-02T05:42:48.765Z,10.03
2022-11-02T05:45:19.309Z,10.01
2022-11-02T05:47:49.197Z,10.03
2022-11-02T05:50:16.237Z,9.98
2022-11-02T05:52:43.261Z,10.04
2022-11-02T05:55:10.316Z,10.07
2022-11-02T05:57:37.561Z,10.08
2022-11-02T06:00:06.367Z,10.09
2022-11-02T06:02:34.449Z,10.12
2022-11-02T06:05:01.856Z,10.09
2022-11-02T06:07:29.078Z,10.12
2022-11-02T06:09:56.118Z,10.10
2022-11-02T06:12:23.230Z,10.16
2022-11-02T06:14:50.325Z,10.13
2022-11-02T06:17:17.305Z,10.13
2022-11-02T06:19:44.304Z,10.12
2022-11-02T06:22:11.360Z,10.03
2022-11-02T06:24:38.337Z,10.09
2022-11-02T06:27:05.433Z,10.09
2022-11-02T06:29:32.468Z,10.05
2022-11-02T06:31:59.489Z,10.02
2022-11-02T06:34:26.508Z,9.96
2022-11-02T06:36:53.832Z,9.87
2022-11-02T06:39:21.160Z,9.91
2022-11-02T06:41:48.166Z,9.88
2022-11-02T06:44:15.182Z,9.89
2022-11-02T06:46:42.197Z,9.87
2022-11-02T06:49:09.181Z,9.83
2022-11-02T06:51:36.169Z,9.83
2022-11-02T06:54:08.332Z,9.86
2022-11-02T06:56:35.764Z,9.87
2022-11-02T06:59:02.789Z,9.85
2022-11-02T07:01:29.951Z,9.83
2022-11-02T07:03:57.170Z,9.81
2022-11-02T07:06:24.258Z,9.84
2022-11-02T07:08:51.479Z,9.85
2022-11-02T07:11:18.513Z,9.84
2022-11-02T07:13:45.538Z,9.75
2022-11-02T07:16:12.626Z,9.79
2022-11-02T07:18:40.847Z,9.83
2022-11-02T07:21:10.523Z,9.79
2022-11-02T07:23:38.079Z,9.77
2022-11-02T07:26:05.437Z,9.80
2022-11-02T07:28:32.445Z,9.77
2022-11-02T07:30:59.486Z,9.80
2022-11-02T07:33:26.510Z,9.80
2022-11-02T07:35:53.513Z,9.86
2022-11-02T07:38:20.834Z,9.94
2022-11-02T07:40:50.777Z,9.96
2022-11-02T07:43:17.863Z,9.95
2022-11-02T07:45:44.908Z,10.00
2022-11-02T07:48:11.948Z,10.01
2022-11-02T07:50:39.002Z,10.02
2022-11-02T07:53:06.296Z,10.01
2022-11-02T07:55:34.167Z,10.09
2022-11-02T07:58:04.151Z,10.17
2022-11-02T08:00:34.618Z,10.20
2022-11-02T08:03:03.101Z,10.26
2022-11-02T08:05:33.304Z,10.27
2022-11-02T08:08:02.646Z,10.30
2022-11-02T08:10:35.461Z,10.35
2022-11-02T08:13:06.777Z,10.36
2022-11-02T08:15:33.820Z,10.36
2022-11-02T08:18:03.256Z,10.44
2022-11-02T08:20:31.220Z,10.47
2022-11-02T08:22:58.269Z,10.50
2022-11-02T08:25:25.967Z,10.53
2022-11-02T08:27:57.668Z,10.54
2022-11-02T08:30:28.724Z,10.54
2022-11-02T08:33:02.098Z,10.51
2022-11-02T08:35:29.583Z,10.50
2022-11-02T08:37:57.283Z,10.52
2022-11-02T08:40:24.451Z,10.51
2022-11-02T08:43:02.181Z,10.55
2022-11-02T08:45:42.818Z,10.60
2022-11-02T08:48:17.445Z,10.60
2022-11-02T08:50:44.479Z,10.66
2022-11-02T08:53:11.546Z,10.68
2022-11-02T08:55:38.662Z,10.70
2022-11-02T08:58:06.252Z,10.65
2022-11-02T09:00:35.034Z,10.69
2022-11-02T09:03:10.749Z,10.68
2022-11-02T09:05:47.347Z,10.71
2022-11-02T09:08:17.373Z,10.77
2022-11-02T09:10:46.556Z,10.82
2022-11-02T09:13:15.264Z,10.90
2022-11-02T09:15:42.354Z,10.95
2022-11-02T09:18:10.348Z,10.98
2022-11-02T09:20:37.586Z,11.02
2022-11-02T09:23:04.844Z,10.98
2022-11-02T09:25:32.295Z,11.08
2022-11-02T09:27:59.719Z,11.06
2022-11-02T09:30:28.610Z,11.15
2022-11-02T09:33:00.579Z,11.12
2022-11-02T09:35:33.557Z,11.23
2022-11-02T09:38:00.703Z,11.26
2022-11-02T09:40:36.780Z,11.32
2022-11-02T09:43:21.216Z,11.35
2022-11-02T09:45:55.743Z,11.40
2022-11-02T09:48:28.989Z,11.47
2022-11-02T09:51:11.007Z,11.49
2022-11-02T09:54:03.926Z,11.56
2022-11-02T09:56:32.591Z,11.58
2022-11-02T09:59:02.904Z,11.64
2022-11-02T10:02:18.082Z,11.70
2022-11-02T10:04:53.843Z,11.78
2022-11-02T10:07:20.906Z,11.80
2022-11-02T10:10:05.380Z,11.78
2022-11-02T10:13:03.241Z,11.80
2022-11-02T10:15:40.253Z,11.83
2022-11-02T10:18:17.376Z,11.82
2022-11-02T10:20:46.035Z,11.88
2022-11-02T10:23:24.598Z,11.95
2022-11-02T10:25:51.832Z,11.99
2022-11-02T10:28:25.888Z,12.02
2022-11-02T10:30:54.360Z,12.05
2022-11-02T10:33:29.247Z,12.09
2022-11-02T10:36:18.622Z,12.12
2022-11-02T10:39:03.523Z,12.12
2022-11-02T10:41:54.634Z,12.16
2022-11-02T10:44:36.686Z,12.23
2022-11-02T10:47:18.088Z,12.32
2022-11-02T10:50:11.037Z,12.43
2022-11-02T10:52:43.495Z,12.52
2022-11-02T10:55:24.487Z,12.47
2022-11-02T10:57:53.828Z,12.45
2022-11-02T11:00:30.517Z,12.49
2022-11-02T11:03:11.623Z,12.57
2022-11-02T11:06:04.674Z,12.57
2022-11-02T11:08:43.709Z,12.56
2022-11-02T11:11:15.372Z,12.59
2022-11-02T11:16:38.411Z,12.74
2022-11-02T11:21:54.242Z,12.62
2022-11-02T11:24:22.600Z,12.62
2022-11-02T11:27:21.398Z,12.59
2022-11-02T11:29:55.019Z,12.50
2022-11-02T11:32:30.369Z,12.43
2022-11-02T11:35:02.465Z,12.40
2022-11-02T11:37:30.001Z,12.42
2022-11-02T11:40:14.787Z,12.48
2022-11-02T11:42:43.415Z,12.52
2022-11-02T11:45:27.867Z,12.57
2022-11-02T11:47:59.128Z,12.60
2022-11-02T11:50:29.242Z,12.63
2022-11-02T11:53:15.464Z,12.65
2022-11-02T11:55:50.999Z,12.64
2022-11-02T11:58:22.539Z,12.73
2022-11-02T12:01:10.700Z,12.78
2022-11-02T12:03:57.716Z,12.78
2022-11-02T12:06:39.167Z,12.78
2022-11-02T12:09:27.563Z,12.79
2022-11-02T12:12:17.178Z,12.72
2022-11-02T12:15:07.337Z,12.65
2022-11-02T12:17:55.330Z,12.73
2022-11-02T12:20:59.194Z,12.75
2022-11-02T12:23:50.226Z,12.71
2022-11-02T12:26:39.012Z,12.69
2022-11-02T12:29:21.359Z,12.76
2022-11-02T12:32:18.222Z,12.72
2022-11-02T12:35:23.142Z,12.66
2022-11-02T12:38:00.332Z,12.59
2022-11-02T12:40:43.739Z,12.58
2022-11-02T12:43:35.319Z,12.64
2022-11-02T12:46:22.018Z,12.73
2022-11-02T12:49:24.096Z,12.87
2022-11-02T12:52:14.042Z,12.97
2022-11-02T12:54:49.275Z,13.06
2022-11-02T12:57:20.402Z,13.03
2022-11-02T12:59:54.810Z,12.99
2022-11-02T13:02:28.900Z,13.05
2022-11-02T13:05:06.661Z,13.17
2022-11-02T13:07:39.639Z,13.21
2022-11-02T13:10:20.661Z,13.23
2022-11-02T13:12:55.523Z,13.22
2022-11-02T13:15:25.956Z,13.23
2022-11-02T13:17:57.465Z,13.18
2022-11-02T13:20:28.604Z,13.22
2022-11-02T13:23:07.829Z,13.23
2022-11-02T13:25:40.608Z,13.21
2022-11-02T13:28:19.385Z,13.11
2022-11-02T13:30:47.751Z,13.03
2022-11-02T13:33:21.147Z,13.13
2022-11-02T13:35:50.216Z,13.19
2022-11-02T13:38:39.030Z,13.27
2022-11-02T13:41:52.804Z,13.26
2022-11-02T13:44:35.059Z,13.27
2022-11-02T13:47:49.397Z,13.25
2022-11-02T13:50:20.216Z,13.27
2022-11-02T13:52:56.374Z,13.28
2022-11-02T13:55:42.872Z,13.34
2022-11-02T13:58:23.956Z,13.33
2022-11-02T14:00:53.354Z,13.31
2022-11-02T14:03:28.256Z,13.31
2022-11-02T14:06:00.627Z,13.26
2022-11-02T14:08:36.195Z,13.29
2022-11-02T14:11:09.296Z,13.35
2022-11-02T14:13:51.367Z,13.36
2022-11-02T14:16:45.324Z,13.34
2022-11-02T14:19:20.232Z,13.21
2022-11-02T14:21:59.592Z,13.12
2022-11-02T14:24:32.651Z,13.14
2022-11-02T14:27:22.113Z,13.25
2022-11-02T14:29:53.225Z,13.26
2022-11-02T14:32:20.200Z,13.23
2022-11-02T14:35:11.209Z,13.21
2022-11-02T14:37:55.375Z,13.20
2022-11-02T14:40:47.372Z,13.19
2022-11-02T14:43:48.500Z,13.07
2022-11-02T14:46:44.392Z,13.03
2022-11-02T14:49:28.602Z,12.96
2022-11-02T14:52:21.777Z,12.89
2022-11-02T14:54:53.971Z,12.85
2022-11-02T14:57:29.346Z,12.83
2022-11-02T14:59:59.661Z,12.78
2022-11-02T15:02:38.626Z,12.76
2022-11-02T15:05:22.916Z,12.77
2022-11-02T15:07:59.664Z,12.75
2022-11-02T15:10:32.949Z,12.79
2022-11-02T15:13:18.524Z,12.75
2022-11-02T15:15:51.743Z,12.66
2022-11-02T15:18:27.454Z,12.62
2022-11-02T15:21:18.994Z,12.57
2022-11-02T15:24:04.612Z,12.48
2022-11-02T15:26:52.970Z,12.42
2022-11-02T15:29:39.434Z,12.28
2022-11-02T15:32:18.307Z,12.22
2022-11-02T15:34:51.732Z,12.15
2022-11-02T15:37:37.377Z,12.12
2022-11-02T15:40:27.569Z,12.08
2022-11-02T15:43:19.542Z,11.99
2022-11-02T15:46:04.852Z,11.92
2022-11-02T15:48:43.451Z,11.91
2022-11-02T15:51:52.762Z,11.85
2022-11-02T15:54:46.190Z,11.81
2022-11-02T15:57:31.456Z,11.73
2022-11-02T16:00:06.857Z,11.70
2022-11-02T16:02:38.434Z,11.68
2022-11-02T16:05:06.439Z,11.65
2022-11-02T16:07:50.308Z,11.61
2022-11-02T16:10:26.141Z,11.56
2022-11-02T16:13:01.401Z,11.49
2022-11-02T16:15:29.383Z,11.43
2022-11-02T16:17:58.282Z,11.38
2022-11-02T16:20:29.220Z,11.31
2022-11-02T16:22:59.756Z,11.23
2022-11-02T16:25:54.315Z,11.18
2022-11-02T16:28:25.455Z,11.13
2022-11-02T16:31:17.875Z,11.13
2022-11-02T16:33:50.308Z,11.05
2022-11-02T16:36:31.832Z,11.00
2022-11-02T16:39:08.971Z,10.97
2022-11-02T16:41:36.584Z,10.94
2022-11-02T16:44:25.021Z,10.90
2022-11-02T16:47:07.176Z,10.88
2022-11-02T16:49:55.145Z,10.85
2022-11-02T16:52:33.704Z,10.85
2022-11-02T16:55:01.553Z,10.83
2022-11-02T16:57:34.104Z,10.80
2022-11-02T17:00:11.363Z,10.88
2022-11-02T17:02:41.276Z,10.81
2022-11-02T17:05:26.956Z,10.85
2022-11-02T17:07:59.699Z,10.87
2022-11-02T17:10:28.902Z,10.88
2022-11-02T17:12:56.931Z,10.85
2022-11-02T17:15:28.959Z,10.79
2022-11-02T17:18:08.587Z,10.89
2022-11-02T17:20:37.723Z,10.85
2022-11-02T17:23:10.425Z,10.88
2022-11-02T17:25:39.887Z,10.95
2022-11-02T17:28:38.952Z,10.94
2022-11-02T17:31:20.330Z,10.94
2022-11-02T17:33:47.879Z,10.87
2022-11-02T17:36:15.805Z,10.85
2022-11-02T17:38:43.002Z,10.84
2022-11-02T17:41:32.108Z,10.75
2022-11-02T17:43:59.209Z,10.69
2022-11-02T17:46:26.258Z,10.76
2022-11-02T17:48:53.244Z,10.71
2022-11-02T17:51:22.096Z,10.70
2022-11-02T17:53:49.848Z,10.67
2022-11-02T17:56:17.228Z,10.67
2022-11-02T17:58:44.309Z,10.67
2022-11-02T18:01:12.944Z,10.66
2022-11-02T18:03:40.379Z,10.64
2022-11-02T18:06:07.538Z,10.67
2022-11-02T18:08:54.577Z,10.70
2022-11-02T18:11:26.035Z,10.72
2022-11-02T18:13:53.710Z,10.73
2022-11-02T18:16:20.944Z,10.79
2022-11-02T18:18:47.966Z,10.77
2022-11-02T18:21:14.951Z,10.76
2022-11-02T18:23:41.982Z,10.81
2022-11-02T18:26:11.808Z,10.85
2022-11-02T18:28:39.117Z,10.81
2022-11-02T18:31:09.227Z,10.77
2022-11-02T18:33:36.292Z,10.77
2022-11-02T18:36:09.084Z,10.83
2022-11-02T18:38:37.262Z,10.84
2022-11-02T18:41:26.905Z,10.90
2022-11-02T18:44:00.538Z,10.90
2022-11-02T18:46:32.059Z,10.82
2022-11-02T18:48:59.182Z,10.86
2022-11-02T18:51:27.010Z,10.82
2022-11-02T18:53:58.142Z,10.83
2022-11-02T18:56:25.543Z,10.81
2022-11-02T18:58:54.387Z,10.86
2022-11-02T19:01:23.608Z,10.85
2022-11-02T19:03:55.290Z,10.83
2022-11-02T19:06:41.643Z,10.82
2022-11-02T19:09:21.474Z,10.82
2022-11-02T19:12:01.264Z,10.80
2022-11-02T19:14:36.844Z,10.77
2022-11-02T19:17:04.419Z,10.82
2022-11-02T19:19:32.329Z,10.83
2022-11-02T19:21:59.625Z,10.81
2022-11-02T19:24:27.006Z,10.83
2022-11-02T19:26:54.787Z,10.82
2022-11-02T19:29:21.928Z,10.71
2022-11-02T19:31:48.976Z,10.81
2022-11-02T19:34:16.225Z,10.79
2022-11-02T19:36:43.247Z,10.79
2022-11-02T19:39:10.664Z,10.71
2022-11-02T19:41:38.591Z,10.67
2022-11-02T19:44:06.114Z,10.62
2022-11-02T19:46:33.251Z,10.69
2022-11-02T19:49:00.328Z,10.68
2022-11-02T19:51:29.947Z,10.68
2022-11-02T19:53:59.837Z,10.71
2022-11-02T19:56:28.837Z,10.64
2022-11-02T19:58:56.615Z,10.67
2022-11-02T20:01:38.001Z,10.67
2022-11-02T20:04:05.773Z,10.66
2022-11-02T20:06:38.741Z,10.62
2022-11-02T20:09:07.870Z,10.65
2022-11-02T20:11:36.141Z,10.60
2022-11-02T20:14:05.018Z,10.57
2022-11-02T20:16:36.325Z,10.70
2022-11-02T20:19:04.992Z,10.68
2022-11-02T20:21:39.848Z,10.65
2022-11-02T20:24:13.657Z,10.57
2022-11-02T20:26:43.777Z,10.52
2022-11-02T20:29:13.923Z,10.57
2022-11-02T20:31:44.450Z,10.56
2022-11-02T20:34:12.854Z,10.51
2022-11-02T20:36:40.108Z,10.47
2022-11-02T20:39:07.864Z,10.42
2022-11-02T20:41:34.881Z,10.42
2022-11-02T20:44:04.871Z,10.50
2022-11-02T20:46:41.850Z,10.41
2022-11-02T20:51:58.031Z,10.42
2022-11-02T20:54:26.124Z,10.38
2022-11-02T20:56:53.187Z,10.48
2022-11-02T20:59:20.283Z,10.39
2022-11-02T21:01:47.570Z,10.35
2022-11-02T21:04:20.424Z,10.34
2022-11-02T21:06:51.988Z,10.34
2022-11-02T21:09:19.272Z,10.34
2022-11-02T21:12:05.157Z,10.38
2022-11-02T21:14:35.188Z,10.44
2022-11-02T21:17:02.942Z,10.43
2022-11-02T21:19:30.092Z,10.41
2022-11-02T21:21:59.896Z,10.41
2022-11-02T21:24:28.672Z,10.40
2022-11-02T21:26:55.694Z,10.36
2022-11-02T21:29:22.793Z,10.34
2022-11-02T21:31:50.174Z,10.34
2022-11-02T21:34:17.348Z,10.35
2022-11-02T21:36:44.432Z,10.40
2022-11-02T21:39:11.970Z,10.34
2022-11-02T21:41:39.855Z,10.39
2022-11-02T21:44:07.693Z,10.43
2022-11-02T21:46:35.604Z,10.42
2022-11-02T21:49:03.744Z,10.47
2022-11-02T21:51:30.819Z,10.40
2022-11-02T21:53:57.892Z,10.33
2022-11-02T21:56:27.018Z,10.34
2022-11-02T21:58:55.468Z,10.39
2022-11-02T22:01:42.478Z,10.38
2022-11-02T22:04:14.829Z,10.36
2022-11-02T22:06:42.595Z,10.32
2022-11-02T22:09:11.899Z,10.38
2022-11-02T22:11:39.954Z,10.38
2022-11-02T22:14:07.508Z,10.39
2022-11-02T22:16:37.492Z,10.36
2022-11-02T22:19:15.267Z,10.30
2022-11-02T22:21:44.706Z,10.27
2022-11-02T22:24:12.602Z,10.26
2022-11-02T22:26:40.986Z,10.22
2022-11-02T22:29:08.654Z,10.24
2022-11-02T22:31:38.801Z,10.21
2022-11-02T22:34:08.159Z,10.21
2022-11-02T22:36:35.890Z,10.20
2022-11-02T22:39:05.299Z,10.16
2022-11-02T22:41:38.282Z,10.28
2022-11-02T22:44:16.320Z,10.23
2022-11-02T22:46:46.000Z,10.21
2022-11-02T22:49:16.296Z,10.22
2022-11-02T22:51:45.683Z,10.13
2022-11-02T22:54:15.640Z,10.13
2022-11-02T22:56:44.181Z,10.12
2022-11-02T22:59:12.611Z,10.05
2022-11-02T23:01:41.230Z,10.09
2022-11-02T23:04:13.608Z,10.10
2022-11-02T23:06:43.938Z,10.11
2022-11-02T23:09:14.283Z,10.13
2022-11-02T23:11:41.410Z,10.11
2022-11-02T23:14:13.953Z,10.13
2022-11-02T23:16:48.553Z,10.18
2022-11-02T23:19:27.766Z,10.13
2022-11-02T23:22:17.515Z,10.13
2022-11-02T23:25:09.070Z,10.07
2022-11-02T23:28:00.010Z,10.03
2022-11-02T23:30:54.540Z,10.04
2022-11-02T23:33:23.330Z,10.05
2022-11-02T23:36:10.813Z,10.09
2022-11-02T23:38:57.708Z,10.01
2022-11-02T23:41:25.577Z,10.00
2022-11-02T23:44:12.450Z,10.01
2022-11-02T23:46:44.009Z,10.00
2022-11-02T23:49:13.211Z,10.00
2022-11-02T23:51:59.138Z,10.01
2022-11-02T23:54:45.417Z,9.95
2022-11-02T23:57:12.801Z,10.01
2022-11-02T23:59:40.353Z,10.02
